sensor_id;sensor_type;location;lat;lon;timestamp;P1;durP1;ratioP1;P2;durP2;ratioP2
19285;SDS011;9776;50.798;6.430;2024-01-25T00:00:39;22.75;;;5.22;;
19285;SDS011;9776;50.798;6.430;2024-01-25T00:03:06;25.02;;;4.85;;
19285;SDS011;9776;50.798;6.430;2024-01-25T00:05:34;25.60;;;6.22;;
19285;SDS011;9776;50.798;6.430;2024-01-25T00:08:01;17.23;;;4.72;;
19285;SDS011;9776;50.798;6.430;2024-01-25T00:10:28;25.38;;;4.80;;
19285;SDS011;9776;50.798;6.430;2024-01-25T00:12:55;20.73;;;4.22;;
19285;SDS011;9776;50.798;6.430;2024-01-25T00:15:22;18.42;;;4.13;;
19285;SDS011;9776;50.798;6.430;2024-01-25T00:17:48;22.85;;;4.32;;
19285;SDS011;9776;50.798;6.430;2024-01-25T00:20:15;20.10;;;4.47;;
19285;SDS011;9776;50.798;6.430;2024-01-25T00:22:43;22.27;;;4.72;;
19285;SDS011;9776;50.798;6.430;2024-01-25T00:25:10;24.88;;;7.97;;
19285;SDS011;9776;50.798;6.430;2024-01-25T00:27:37;26.67;;;6.07;;
19285;SDS011;9776;50.798;6.430;2024-01-25T00:30:04;22.73;;;5.30;;
19285;SDS011;9776;50.798;6.430;2024-01-25T00:32:31;26.90;;;4.40;;
19285;SDS011;9776;50.798;6.430;2024-01-25T00:34:58;22.05;;;4.00;;
19285;SDS011;9776;50.798;6.430;2024-01-25T00:37:27;23.52;;;3.70;;
19285;SDS011;9776;50.798;6.430;2024-01-25T00:39:55;19.65;;;3.90;;
19285;SDS011;9776;50.798;6.430;2024-01-25T00:42:22;25.35;;;4.60;;
19285;SDS011;9776;50.798;6.430;2024-01-25T00:44:50;23.33;;;4.88;;
19285;SDS011;9776;50.798;6.430;2024-01-25T00:47:18;24.08;;;4.60;;
19285;SDS011;9776;50.798;6.430;2024-01-25T00:49:45;21.90;;;4.20;;
19285;SDS011;9776;50.798;6.430;2024-01-25T00:52:12;27.83;;;4.22;;
19285;SDS011;9776;50.798;6.430;2024-01-25T00:54:39;21.63;;;4.10;;
19285;SDS011;9776;50.798;6.430;2024-01-25T00:57:09;22.50;;;4.53;;
19285;SDS011;9776;50.798;6.430;2024-01-25T00:59:36;24.90;;;4.80;;
19285;SDS011;9776;50.798;6.430;2024-01-25T01:02:04;25.92;;;5.10;;
19285;SDS011;9776;50.798;6.430;2024-01-25T01:04:34;29.17;;;4.57;;
19285;SDS011;9776;50.798;6.430;2024-01-25T01:07:01;24.92;;;5.22;;
19285;SDS011;9776;50.798;6.430;2024-01-25T01:09:28;19.08;;;3.90;;
19285;SDS011;9776;50.798;6.430;2024-01-25T01:11:55;25.58;;;4.63;;
19285;SDS011;9776;50.798;6.430;2024-01-25T01:14:23;23.45;;;5.05;;
19285;SDS011;9776;50.798;6.430;2024-01-25T01:16:50;18.88;;;4.63;;
19285;SDS011;9776;50.798;6.430;2024-01-25T01:19:17;19.48;;;4.93;;
19285;SDS011;9776;50.798;6.430;2024-01-25T01:21:43;16.25;;;4.00;;
19285;SDS011;9776;50.798;6.430;2024-01-25T01:24:10;23.10;;;5.53;;
19285;SDS011;9776;50.798;6.430;2024-01-25T01:26:37;30.45;;;5.13;;
19285;SDS011;9776;50.798;6.430;2024-01-25T01:29:04;30.98;;;5.72;;
19285;SDS011;9776;50.798;6.430;2024-01-25T01:31:32;24.75;;;4.50;;
19285;SDS011;9776;50.798;6.430;2024-01-25T01:33:58;26.95;;;4.82;;
19285;SDS011;9776;50.798;6.430;2024-01-25T01:36:25;25.13;;;4.90;;
19285;SDS011;9776;50.798;6.430;2024-01-25T01:38:52;20.85;;;5.40;;
19285;SDS011;9776;50.798;6.430;2024-01-25T01:41:19;30.30;;;4.93;;
19285;SDS011;9776;50.798;6.430;2024-01-25T01:43:46;22.50;;;4.55;;
19285;SDS011;9776;50.798;6.430;2024-01-25T01:46:20;26.15;;;5.00;;
19285;SDS011;9776;50.798;6.430;2024-01-25T01:48:57;24.10;;;4.68;;
19285;SDS011;9776;50.798;6.430;2024-01-25T01:51:24;22.70;;;4.70;;
19285;SDS011;9776;50.798;6.430;2024-01-25T01:53:51;23.48;;;4.20;;
19285;SDS011;9776;50.798;6.430;2024-01-25T01:56:19;22.77;;;4.82;;
19285;SDS011;9776;50.798;6.430;2024-01-25T01:58:46;29.02;;;5.07;;
19285;SDS011;9776;50.798;6.430;2024-01-25T02:01:15;25.33;;;5.43;;
19285;SDS011;9776;50.798;6.430;2024-01-25T02:03:41;34.47;;;6.03;;
19285;SDS011;9776;50.798;6.430;2024-01-25T02:06:09;19.23;;;5.00;;
19285;SDS011;9776;50.798;6.430;2024-01-25T02:08:36;22.83;;;5.15;;
19285;SDS011;9776;50.798;6.430;2024-01-25T02:11:03;21.63;;;5.05;;
19285;SDS011;9776;50.798;6.430;2024-01-25T02:13:30;22.25;;;4.63;;
19285;SDS011;9776;50.798;6.430;2024-01-25T02:15:57;31.52;;;5.45;;
19285;SDS011;9776;50.798;6.430;2024-01-25T02:18:24;27.77;;;5.25;;
19285;SDS011;9776;50.798;6.430;2024-01-25T02:20:50;26.83;;;4.85;;
19285;SDS011;9776;50.798;6.430;2024-01-25T02:23:19;25.90;;;5.30;;
19285;SDS011;9776;50.798;6.430;2024-01-25T02:25:45;29.52;;;4.47;;
19285;SDS011;9776;50.798;6.430;2024-01-25T02:28:12;22.42;;;4.55;;
19285;SDS011;9776;50.798;6.430;2024-01-25T02:30:39;22.10;;;4.40;;
19285;SDS011;9776;50.798;6.430;2024-01-25T02:33:05;21.13;;;4.95;;
19285;SDS011;9776;50.798;6.430;2024-01-25T02:35:32;24.63;;;5.07;;
19285;SDS011;9776;50.798;6.430;2024-01-25T02:37:59;25.00;;;5.00;;
19285;SDS011;9776;50.798;6.430;2024-01-25T02:40:27;30.33;;;4.95;;
19285;SDS011;9776;50.798;6.430;2024-01-25T02:42:54;20.17;;;4.95;;
19285;SDS011;9776;50.798;6.430;2024-01-25T02:45:22;24.75;;;5.18;;
19285;SDS011;9776;50.798;6.430;2024-01-25T02:47:48;21.90;;;5.13;;
19285;SDS011;9776;50.798;6.430;2024-01-25T02:50:15;25.30;;;4.93;;
19285;SDS011;9776;50.798;6.430;2024-01-25T02:52:42;23.25;;;4.90;;
19285;SDS011;9776;50.798;6.430;2024-01-25T02:55:09;21.95;;;4.72;;
19285;SDS011;9776;50.798;6.430;2024-01-25T02:57:37;27.10;;;5.22;;
19285;SDS011;9776;50.798;6.430;2024-01-25T03:00:04;22.90;;;4.78;;
19285;SDS011;9776;50.798;6.430;2024-01-25T03:02:31;26.45;;;4.65;;
19285;SDS011;9776;50.798;6.430;2024-01-25T03:04:58;22.42;;;5.32;;
19285;SDS011;9776;50.798;6.430;2024-01-25T03:07:24;24.73;;;4.68;;
19285;SDS011;9776;50.798;6.430;2024-01-25T03:09:51;29.75;;;5.55;;
19285;SDS011;9776;50.798;6.430;2024-01-25T03:12:18;30.25;;;5.20;;
19285;SDS011;9776;50.798;6.430;2024-01-25T03:14:46;22.80;;;4.35;;
19285;SDS011;9776;50.798;6.430;2024-01-25T03:17:14;28.08;;;5.40;;
19285;SDS011;9776;50.798;6.430;2024-01-25T03:19:40;29.08;;;4.53;;
19285;SDS011;9776;50.798;6.430;2024-01-25T03:22:07;24.27;;;4.53;;
19285;SDS011;9776;50.798;6.430;2024-01-25T03:24:36;25.30;;;4.70;;
19285;SDS011;9776;50.798;6.430;2024-01-25T03:27:03;20.85;;;4.70;;
19285;SDS011;9776;50.798;6.430;2024-01-25T03:29:30;27.00;;;4.97;;
19285;SDS011;9776;50.798;6.430;2024-01-25T03:31:59;23.88;;;4.80;;
19285;SDS011;9776;50.798;6.430;2024-01-25T03:34:25;24.95;;;4.75;;
19285;SDS011;9776;50.798;6.430;2024-01-25T03:36:52;24.27;;;5.00;;
19285;SDS011;9776;50.798;6.430;2024-01-25T03:39:19;24.90;;;5.10;;
19285;SDS011;9776;50.798;6.430;2024-01-25T03:41:46;21.23;;;4.68;;
19285;SDS011;9776;50.798;6.430;2024-01-25T03:44:12;23.52;;;5.72;;
19285;SDS011;9776;50.798;6.430;2024-01-25T03:46:39;25.40;;;5.18;;
19285;SDS011;9776;50.798;6.430;2024-01-25T03:49:07;28.15;;;5.03;;
19285;SDS011;9776;50.798;6.430;2024-01-25T03:51:34;26.60;;;5.50;;
19285;SDS011;9776;50.798;6.430;2024-01-25T03:54:01;24.35;;;4.47;;
19285;SDS011;9776;50.798;6.430;2024-01-25T03:56:28;30.73;;;5.10;;
19285;SDS011;9776;50.798;6.430;2024-01-25T03:58:55;26.20;;;4.78;;
19285;SDS011;9776;50.798;6.430;2024-01-25T04:01:21;24.08;;;4.40;;
19285;SDS011;9776;50.798;6.430;2024-01-25T04:03:48;27.92;;;5.00;;
19285;SDS011;9776;50.798;6.430;2024-01-25T04:06:16;25.45;;;4.72;;
19285;SDS011;9776;50.798;6.430;2024-01-25T04:08:43;27.67;;;5.10;;
19285;SDS011;9776;50.798;6.430;2024-01-25T04:11:09;24.75;;;4.70;;
19285;SDS011;9776;50.798;6.430;2024-01-25T04:13:36;21.27;;;4.03;;
19285;SDS011;9776;50.798;6.430;2024-01-25T04:16:03;21.50;;;4.68;;
19285;SDS011;9776;50.798;6.430;2024-01-25T04:18:30;34.90;;;4.70;;
19285;SDS011;9776;50.798;6.430;2024-01-25T04:20:57;24.02;;;5.07;;
19285;SDS011;9776;50.798;6.430;2024-01-25T04:23:25;19.77;;;4.15;;
19285;SDS011;9776;50.798;6.430;2024-01-25T04:25:51;22.50;;;4.13;;
19285;SDS011;9776;50.798;6.430;2024-01-25T04:28:20;29.88;;;4.78;;
19285;SDS011;9776;50.798;6.430;2024-01-25T04:30:47;24.67;;;4.70;;
19285;SDS011;9776;50.798;6.430;2024-01-25T04:33:13;25.60;;;4.95;;
19285;SDS011;9776;50.798;6.430;2024-01-25T04:35:40;19.33;;;4.30;;
19285;SDS011;9776;50.798;6.430;2024-01-25T04:38:07;23.77;;;4.65;;
19285;SDS011;9776;50.798;6.430;2024-01-25T04:40:35;23.00;;;5.03;;
19285;SDS011;9776;50.798;6.430;2024-01-25T04:43:01;17.38;;;4.25;;
19285;SDS011;9776;50.798;6.430;2024-01-25T04:45:28;24.60;;;5.40;;
19285;SDS011;9776;50.798;6.430;2024-01-25T04:47:54;20.80;;;4.10;;
19285;SDS011;9776;50.798;6.430;2024-01-25T04:50:21;28.83;;;5.20;;
19285;SDS011;9776;50.798;6.430;2024-01-25T04:52:48;27.45;;;5.25;;
19285;SDS011;9776;50.798;6.430;2024-01-25T04:55:14;25.92;;;4.75;;
19285;SDS011;9776;50.798;6.430;2024-01-25T04:57:43;21.27;;;4.20;;
19285;SDS011;9776;50.798;6.430;2024-01-25T05:00:10;28.52;;;5.07;;
19285;SDS011;9776;50.798;6.430;2024-01-25T05:02:38;23.90;;;4.38;;
19285;SDS011;9776;50.798;6.430;2024-01-25T05:05:04;27.90;;;4.88;;
19285;SDS011;9776;50.798;6.430;2024-01-25T05:07:31;25.33;;;4.45;;
19285;SDS011;9776;50.798;6.430;2024-01-25T05:09:58;19.17;;;4.72;;
19285;SDS011;9776;50.798;6.430;2024-01-25T05:12:24;29.40;;;4.95;;
19285;SDS011;9776;50.798;6.430;2024-01-25T05:14:52;25.75;;;4.38;;
19285;SDS011;9776;50.798;6.430;2024-01-25T05:17:19;25.92;;;4.13;;
19285;SDS011;9776;50.798;6.430;2024-01-25T05:19:45;26.73;;;4.30;;
19285;SDS011;9776;50.798;6.430;2024-01-25T05:22:12;28.17;;;5.65;;
19285;SDS011;9776;50.798;6.430;2024-01-25T05:24:39;25.98;;;4.63;;
19285;SDS011;9776;50.798;6.430;2024-01-25T05:27:05;27.13;;;4.70;;
19285;SDS011;9776;50.798;6.430;2024-01-25T05:29:32;23.98;;;4.70;;
19285;SDS011;9776;50.798;6.430;2024-01-25T05:32:00;25.45;;;4.65;;
19285;SDS011;9776;50.798;6.430;2024-01-25T05:34:27;28.05;;;4.82;;
19285;SDS011;9776;50.798;6.430;2024-01-25T05:36:53;28.17;;;4.90;;
19285;SDS011;9776;50.798;6.430;2024-01-25T05:39:20;21.30;;;4.82;;
19285;SDS011;9776;50.798;6.430;2024-01-25T05:41:47;26.70;;;5.10;;
19285;SDS011;9776;50.798;6.430;2024-01-25T05:44:13;26.00;;;4.57;;
19285;SDS011;9776;50.798;6.430;2024-01-25T05:46:40;20.92;;;4.18;;
19285;SDS011;9776;50.798;6.430;2024-01-25T05:49:08;21.70;;;4.82;;
19285;SDS011;9776;50.798;6.430;2024-01-25T05:51:35;18.95;;;4.97;;
19285;SDS011;9776;50.798;6.430;2024-01-25T05:54:02;26.08;;;5.15;;
19285;SDS011;9776;50.798;6.430;2024-01-25T05:56:29;21.23;;;4.55;;
19285;SDS011;9776;50.798;6.430;2024-01-25T05:58:56;23.35;;;5.28;;
19285;SDS011;9776;50.798;6.430;2024-01-25T06:01:22;16.52;;;5.03;;
19285;SDS011;9776;50.798;6.430;2024-01-25T06:03:49;22.02;;;5.80;;
19285;SDS011;9776;50.798;6.430;2024-01-25T06:06:18;19.10;;;5.55;;
19285;SDS011;9776;50.798;6.430;2024-01-25T06:08:44;23.52;;;5.10;;
19285;SDS011;9776;50.798;6.430;2024-01-25T06:11:11;24.73;;;5.65;;
19285;SDS011;9776;50.798;6.430;2024-01-25T06:13:37;29.23;;;6.18;;
19285;SDS011;9776;50.798;6.430;2024-01-25T06:16:05;24.45;;;6.00;;
19285;SDS011;9776;50.798;6.430;2024-01-25T06:18:32;27.60;;;6.93;;
19285;SDS011;9776;50.798;6.430;2024-01-25T06:20:58;20.13;;;5.57;;
19285;SDS011;9776;50.798;6.430;2024-01-25T06:23:26;30.00;;;6.43;;
19285;SDS011;9776;50.798;6.430;2024-01-25T06:25:53;22.80;;;5.72;;
19285;SDS011;9776;50.798;6.430;2024-01-25T06:28:19;27.95;;;5.90;;
19285;SDS011;9776;50.798;6.430;2024-01-25T06:30:46;29.48;;;6.25;;
19285;SDS011;9776;50.798;6.430;2024-01-25T06:33:13;20.83;;;6.13;;
19285;SDS011;9776;50.798;6.430;2024-01-25T06:35:40;21.42;;;5.80;;
19285;SDS011;9776;50.798;6.430;2024-01-25T06:38:07;29.35;;;6.25;;
19285;SDS011;9776;50.798;6.430;2024-01-25T06:40:35;28.52;;;6.38;;
19285;SDS011;9776;50.798;6.430;2024-01-25T06:43:01;24.10;;;5.95;;
19285;SDS011;9776;50.798;6.430;2024-01-25T06:45:28;25.00;;;6.38;;
19285;SDS011;9776;50.798;6.430;2024-01-25T06:47:55;25.15;;;6.20;;
19285;SDS011;9776;50.798;6.430;2024-01-25T06:50:22;23.40;;;6.25;;
19285;SDS011;9776;50.798;6.430;2024-01-25T06:52:48;25.90;;;6.05;;
19285;SDS011;9776;50.798;6.430;2024-01-25T06:55:15;24.13;;;6.65;;
19285;SDS011;9776;50.798;6.430;2024-01-25T06:57:43;27.75;;;6.43;;
19285;SDS011;9776;50.798;6.430;2024-01-25T07:00:11;23.40;;;6.88;;
19285;SDS011;9776;50.798;6.430;2024-01-25T07:02:40;29.30;;;5.85;;
19285;SDS011;9776;50.798;6.430;2024-01-25T07:05:07;23.63;;;6.68;;
19285;SDS011;9776;50.798;6.430;2024-01-25T07:07:34;28.42;;;6.75;;
19285;SDS011;9776;50.798;6.430;2024-01-25T07:10:03;24.13;;;6.95;;
19285;SDS011;9776;50.798;6.430;2024-01-25T07:12:30;25.33;;;7.15;;
19285;SDS011;9776;50.798;6.430;2024-01-25T07:14:58;28.00;;;6.82;;
19285;SDS011;9776;50.798;6.430;2024-01-25T07:17:25;25.48;;;6.78;;
19285;SDS011;9776;50.798;6.430;2024-01-25T07:19:51;27.48;;;7.38;;
19285;SDS011;9776;50.798;6.430;2024-01-25T07:22:18;31.17;;;7.20;;
19285;SDS011;9776;50.798;6.430;2024-01-25T07:24:47;26.23;;;7.90;;
19285;SDS011;9776;50.798;6.430;2024-01-25T07:27:14;25.48;;;6.72;;
19285;SDS011;9776;50.798;6.430;2024-01-25T07:29:42;25.85;;;6.97;;
19285;SDS011;9776;50.798;6.430;2024-01-25T07:32:11;32.40;;;7.10;;
19285;SDS011;9776;50.798;6.430;2024-01-25T07:34:38;30.67;;;7.38;;
19285;SDS011;9776;50.798;6.430;2024-01-25T07:37:05;31.73;;;7.30;;
19285;SDS011;9776;50.798;6.430;2024-01-25T07:39:32;26.73;;;7.30;;
19285;SDS011;9776;50.798;6.430;2024-01-25T07:41:58;107.47;;;44.53;;
19285;SDS011;9776;50.798;6.430;2024-01-25T07:44:25;69.68;;;17.70;;
19285;SDS011;9776;50.798;6.430;2024-01-25T07:46:52;27.38;;;7.57;;
19285;SDS011;9776;50.798;6.430;2024-01-25T07:49:20;26.42;;;7.55;;
19285;SDS011;9776;50.798;6.430;2024-01-25T07:51:47;23.58;;;6.80;;
19285;SDS011;9776;50.798;6.430;2024-01-25T07:54:13;32.80;;;6.78;;
19285;SDS011;9776;50.798;6.430;2024-01-25T07:56:40;26.27;;;6.93;;
19285;SDS011;9776;50.798;6.430;2024-01-25T07:59:07;25.10;;;7.63;;
19285;SDS011;9776;50.798;6.430;2024-01-25T08:01:34;28.60;;;7.05;;
19285;SDS011;9776;50.798;6.430;2024-01-25T08:04:01;26.08;;;6.47;;
19285;SDS011;9776;50.798;6.430;2024-01-25T08:06:30;25.60;;;6.20;;
19285;SDS011;9776;50.798;6.430;2024-01-25T08:08:56;23.83;;;7.10;;
19285;SDS011;9776;50.798;6.430;2024-01-25T08:11:24;30.63;;;6.88;;
19285;SDS011;9776;50.798;6.430;2024-01-25T08:13:51;31.08;;;6.85;;
19285;SDS011;9776;50.798;6.430;2024-01-25T08:16:17;32.05;;;7.30;;
19285;SDS011;9776;50.798;6.430;2024-01-25T08:18:45;28.98;;;7.18;;
19285;SDS011;9776;50.798;6.430;2024-01-25T08:21:12;33.65;;;6.75;;
19285;SDS011;9776;50.798;6.430;2024-01-25T08:23:41;30.67;;;7.53;;
19285;SDS011;9776;50.798;6.430;2024-01-25T08:26:07;26.25;;;6.85;;
19285;SDS011;9776;50.798;6.430;2024-01-25T08:28:38;26.52;;;7.20;;
19285;SDS011;9776;50.798;6.430;2024-01-25T08:31:05;21.05;;;7.03;;
19285;SDS011;9776;50.798;6.430;2024-01-25T08:33:32;28.35;;;7.00;;
19285;SDS011;9776;50.798;6.430;2024-01-25T08:35:59;27.20;;;7.68;;
19285;SDS011;9776;50.798;6.430;2024-01-25T08:38:26;24.88;;;6.80;;
19285;SDS011;9776;50.798;6.430;2024-01-25T08:40:54;32.33;;;7.43;;
19285;SDS011;9776;50.798;6.430;2024-01-25T08:43:20;21.92;;;6.90;;
19285;SDS011;9776;50.798;6.430;2024-01-25T08:45:47;25.27;;;6.78;;
19285;SDS011;9776;50.798;6.430;2024-01-25T08:48:14;27.02;;;6.65;;
19285;SDS011;9776;50.798;6.430;2024-01-25T08:50:41;25.58;;;6.43;;
19285;SDS011;9776;50.798;6.430;2024-01-25T08:53:07;25.00;;;7.13;;
19285;SDS011;9776;50.798;6.430;2024-01-25T08:55:34;25.00;;;6.70;;
19285;SDS011;9776;50.798;6.430;2024-01-25T08:58:03;28.30;;;7.72;;
19285;SDS011;9776;50.798;6.430;2024-01-25T09:00:30;35.97;;;7.55;;
19285;SDS011;9776;50.798;6.430;2024-01-25T09:02:57;22.65;;;7.18;;
19285;SDS011;9776;50.798;6.430;2024-01-25T09:05:23;23.17;;;7.05;;
19285;SDS011;9776;50.798;6.430;2024-01-25T09:07:53;26.02;;;6.90;;
19285;SDS011;9776;50.798;6.430;2024-01-25T09:10:20;23.42;;;7.00;;
19285;SDS011;9776;50.798;6.430;2024-01-25T09:12:46;29.48;;;6.63;;
19285;SDS011;9776;50.798;6.430;2024-01-25T09:15:15;24.05;;;7.43;;
19285;SDS011;9776;50.798;6.430;2024-01-25T09:17:42;23.88;;;7.32;;
19285;SDS011;9776;50.798;6.430;2024-01-25T09:20:10;24.55;;;6.53;;
19285;SDS011;9776;50.798;6.430;2024-01-25T09:22:37;23.98;;;6.45;;
19285;SDS011;9776;50.798;6.430;2024-01-25T09:25:04;25.38;;;7.25;;
19285;SDS011;9776;50.798;6.430;2024-01-25T09:27:31;31.60;;;6.65;;
19285;SDS011;9776;50.798;6.430;2024-01-25T09:29:57;20.25;;;6.07;;
19285;SDS011;9776;50.798;6.430;2024-01-25T09:32:25;22.10;;;6.07;;
19285;SDS011;9776;50.798;6.430;2024-01-25T09:34:52;24.02;;;6.70;;
19285;SDS011;9776;50.798;6.430;2024-01-25T09:37:19;29.40;;;6.88;;
19285;SDS011;9776;50.798;6.430;2024-01-25T09:39:48;22.98;;;6.80;;
19285;SDS011;9776;50.798;6.430;2024-01-25T09:42:16;28.25;;;7.18;;
19285;SDS011;9776;50.798;6.430;2024-01-25T09:44:43;24.98;;;6.43;;
19285;SDS011;9776;50.798;6.430;2024-01-25T09:47:09;21.42;;;5.90;;
19285;SDS011;9776;50.798;6.430;2024-01-25T09:49:38;21.02;;;5.90;;
19285;SDS011;9776;50.798;6.430;2024-01-25T09:52:05;25.38;;;6.32;;
19285;SDS011;9776;50.798;6.430;2024-01-25T09:54:33;29.45;;;6.63;;
19285;SDS011;9776;50.798;6.430;2024-01-25T09:57:01;20.75;;;5.85;;
19285;SDS011;9776;50.798;6.430;2024-01-25T09:59:32;26.42;;;6.55;;
19285;SDS011;9776;50.798;6.430;2024-01-25T10:01:59;26.42;;;6.10;;
19285;SDS011;9776;50.798;6.430;2024-01-25T10:04:27;21.73;;;5.90;;
19285;SDS011;9776;50.798;6.430;2024-01-25T10:06:56;22.58;;;6.32;;
19285;SDS011;9776;50.798;6.430;2024-01-25T10:09:23;28.77;;;6.65;;
19285;SDS011;9776;50.798;6.430;2024-01-25T10:11:49;27.02;;;6.68;;
19285;SDS011;9776;50.798;6.430;2024-01-25T10:14:16;23.25;;;6.10;;
19285;SDS011;9776;50.798;6.430;2024-01-25T10:16:44;23.27;;;5.95;;
19285;SDS011;9776;50.798;6.430;2024-01-25T10:19:11;21.67;;;5.82;;
19285;SDS011;9776;50.798;6.430;2024-01-25T10:21:40;22.67;;;5.53;;
19285;SDS011;9776;50.798;6.430;2024-01-25T10:24:09;23.13;;;5.88;;
19285;SDS011;9776;50.798;6.430;2024-01-25T10:26:36;29.33;;;6.30;;
19285;SDS011;9776;50.798;6.430;2024-01-25T10:29:02;22.92;;;5.13;;
19285;SDS011;9776;50.798;6.430;2024-01-25T10:31:29;21.85;;;5.55;;
19285;SDS011;9776;50.798;6.430;2024-01-25T10:33:57;22.20;;;5.40;;
19285;SDS011;9776;50.798;6.430;2024-01-25T10:36:23;19.58;;;4.70;;
19285;SDS011;9776;50.798;6.430;2024-01-25T10:38:53;19.10;;;4.60;;
19285;SDS011;9776;50.798;6.430;2024-01-25T10:41:22;19.70;;;4.80;;
19285;SDS011;9776;50.798;6.430;2024-01-25T10:43:51;20.80;;;5.05;;
19285;SDS011;9776;50.798;6.430;2024-01-25T10:46:18;25.20;;;5.38;;
19285;SDS011;9776;50.798;6.430;2024-01-25T10:48:45;21.30;;;5.38;;
19285;SDS011;9776;50.798;6.430;2024-01-25T10:51:13;21.27;;;5.10;;
19285;SDS011;9776;50.798;6.430;2024-01-25T10:53:43;18.90;;;4.53;;
19285;SDS011;9776;50.798;6.430;2024-01-25T10:56:11;16.58;;;4.80;;
19285;SDS011;9776;50.798;6.430;2024-01-25T10:58:41;28.95;;;7.90;;
19285;SDS011;9776;50.798;6.430;2024-01-25T11:01:08;17.88;;;3.90;;
19285;SDS011;9776;50.798;6.430;2024-01-25T11:03:36;19.10;;;4.68;;
19285;SDS011;9776;50.798;6.430;2024-01-25T11:06:05;23.77;;;7.32;;
19285;SDS011;9776;50.798;6.430;2024-01-25T11:08:34;21.55;;;4.88;;
19285;SDS011;9776;50.798;6.430;2024-01-25T11:11:03;26.65;;;9.38;;
19285;SDS011;9776;50.798;6.430;2024-01-25T11:13:33;18.63;;;5.70;;
19285;SDS011;9776;50.798;6.430;2024-01-25T11:16:11;16.92;;;3.85;;
19285;SDS011;9776;50.798;6.430;2024-01-25T11:18:48;10.48;;;3.20;;
19285;SDS011;9776;50.798;6.430;2024-01-25T11:21:22;14.70;;;3.72;;
19285;SDS011;9776;50.798;6.430;2024-01-25T11:23:58;21.45;;;4.22;;
19285;SDS011;9776;50.798;6.430;2024-01-25T11:26:26;12.70;;;3.20;;
19285;SDS011;9776;50.798;6.430;2024-01-25T11:28:53;18.30;;;3.15;;
19285;SDS011;9776;50.798;6.430;2024-01-25T11:31:22;14.98;;;3.00;;
19285;SDS011;9776;50.798;6.430;2024-01-25T11:33:49;14.27;;;2.90;;
19285;SDS011;9776;50.798;6.430;2024-01-25T11:36:19;17.05;;;2.95;;
19285;SDS011;9776;50.798;6.430;2024-01-25T11:38:46;19.95;;;4.15;;
19285;SDS011;9776;50.798;6.430;2024-01-25T11:41:13;18.85;;;3.38;;
19285;SDS011;9776;50.798;6.430;2024-01-25T11:43:40;12.80;;;2.83;;
19285;SDS011;9776;50.798;6.430;2024-01-25T11:46:06;11.27;;;2.38;;
19285;SDS011;9776;50.798;6.430;2024-01-25T11:48:38;10.13;;;2.83;;
19285;SDS011;9776;50.798;6.430;2024-01-25T11:51:05;13.18;;;3.33;;
19285;SDS011;9776;50.798;6.430;2024-01-25T11:53:32;10.88;;;3.75;;
19285;SDS011;9776;50.798;6.430;2024-01-25T11:55:58;12.60;;;2.42;;
19285;SDS011;9776;50.798;6.430;2024-01-25T11:58:25;11.70;;;3.40;;
19285;SDS011;9776;50.798;6.430;2024-01-25T12:00:52;14.18;;;2.75;;
19285;SDS011;9776;50.798;6.430;2024-01-25T12:03:20;11.43;;;2.97;;
19285;SDS011;9776;50.798;6.430;2024-01-25T12:05:48;10.93;;;2.45;;
19285;SDS011;9776;50.798;6.430;2024-01-25T12:08:16;8.85;;;2.45;;
19285;SDS011;9776;50.798;6.430;2024-01-25T12:10:43;10.23;;;2.90;;
19285;SDS011;9776;50.798;6.430;2024-01-25T12:13:10;13.27;;;3.50;;
19285;SDS011;9776;50.798;6.430;2024-01-25T12:15:37;13.85;;;3.08;;
19285;SDS011;9776;50.798;6.430;2024-01-25T12:18:05;13.32;;;2.42;;
19285;SDS011;9776;50.798;6.430;2024-01-25T12:20:35;10.07;;;2.20;;
19285;SDS011;9776;50.798;6.430;2024-01-25T12:23:03;8.77;;;2.28;;
19285;SDS011;9776;50.798;6.430;2024-01-25T12:25:32;9.95;;;2.17;;
19285;SDS011;9776;50.798;6.430;2024-01-25T12:27:59;10.23;;;2.20;;
19285;SDS011;9776;50.798;6.430;2024-01-25T12:30:26;9.70;;;2.67;;
19285;SDS011;9776;50.798;6.430;2024-01-25T12:32:52;9.18;;;2.53;;
19285;SDS011;9776;50.798;6.430;2024-01-25T12:35:20;9.60;;;2.65;;
19285;SDS011;9776;50.798;6.430;2024-01-25T12:37:46;13.80;;;2.50;;
19285;SDS011;9776;50.798;6.430;2024-01-25T12:40:15;12.65;;;2.35;;
19285;SDS011;9776;50.798;6.430;2024-01-25T12:42:41;10.65;;;2.90;;
19285;SDS011;9776;50.798;6.430;2024-01-25T12:45:09;10.13;;;2.10;;
19285;SDS011;9776;50.798;6.430;2024-01-25T12:47:35;9.57;;;1.95;;
19285;SDS011;9776;50.798;6.430;2024-01-25T12:50:02;12.48;;;2.45;;
19285;SDS011;9776;50.798;6.430;2024-01-25T12:52:29;12.40;;;2.70;;
19285;SDS011;9776;50.798;6.430;2024-01-25T12:54:56;13.75;;;4.32;;
19285;SDS011;9776;50.798;6.430;2024-01-25T12:57:25;9.00;;;2.55;;
19285;SDS011;9776;50.798;6.430;2024-01-25T12:59:51;9.32;;;1.98;;
19285;SDS011;9776;50.798;6.430;2024-01-25T13:02:18;14.63;;;2.28;;
19285;SDS011;9776;50.798;6.430;2024-01-25T13:04:44;8.93;;;1.98;;
19285;SDS011;9776;50.798;6.430;2024-01-25T13:07:11;15.43;;;2.53;;
19285;SDS011;9776;50.798;6.430;2024-01-25T13:09:38;8.32;;;2.15;;
19285;SDS011;9776;50.798;6.430;2024-01-25T13:12:05;11.48;;;1.98;;
19285;SDS011;9776;50.798;6.430;2024-01-25T13:14:33;12.57;;;2.03;;
19285;SDS011;9776;50.798;6.430;2024-01-25T13:17:00;9.07;;;1.63;;
19285;SDS011;9776;50.798;6.430;2024-01-25T13:19:26;13.10;;;2.17;;
19285;SDS011;9776;50.798;6.430;2024-01-25T13:21:53;8.55;;;2.00;;
19285;SDS011;9776;50.798;6.430;2024-01-25T13:24:20;15.60;;;2.55;;
19285;SDS011;9776;50.798;6.430;2024-01-25T13:26:47;5.85;;;1.80;;
19285;SDS011;9776;50.798;6.430;2024-01-25T13:29:13;10.27;;;2.00;;
19285;SDS011;9776;50.798;6.430;2024-01-25T13:31:42;8.15;;;2.10;;
19285;SDS011;9776;50.798;6.430;2024-01-25T13:34:08;5.95;;;1.98;;
19285;SDS011;9776;50.798;6.430;2024-01-25T13:36:38;12.50;;;3.03;;
19285;SDS011;9776;50.798;6.430;2024-01-25T13:39:05;12.10;;;2.33;;
19285;SDS011;9776;50.798;6.430;2024-01-25T13:41:32;9.98;;;1.60;;
19285;SDS011;9776;50.798;6.430;2024-01-25T13:43:59;12.35;;;2.05;;
19285;SDS011;9776;50.798;6.430;2024-01-25T13:46:26;12.18;;;1.88;;
19285;SDS011;9776;50.798;6.430;2024-01-25T13:48:54;13.38;;;2.25;;
19285;SDS011;9776;50.798;6.430;2024-01-25T13:51:20;23.10;;;2.60;;
19285;SDS011;9776;50.798;6.430;2024-01-25T13:53:47;12.45;;;2.83;;
19285;SDS011;9776;50.798;6.430;2024-01-25T13:56:14;10.93;;;2.00;;
19285;SDS011;9776;50.798;6.430;2024-01-25T13:58:41;11.20;;;2.17;;
19285;SDS011;9776;50.798;6.430;2024-01-25T14:01:08;6.63;;;2.03;;
19285;SDS011;9776;50.798;6.430;2024-01-25T14:03:35;11.05;;;2.10;;
19285;SDS011;9776;50.798;6.430;2024-01-25T14:06:03;10.95;;;3.55;;
19285;SDS011;9776;50.798;6.430;2024-01-25T14:08:30;49.80;;;20.27;;
19285;SDS011;9776;50.798;6.430;2024-01-25T14:10:57;13.07;;;3.30;;
19285;SDS011;9776;50.798;6.430;2024-01-25T14:13:24;10.90;;;3.10;;
19285;SDS011;9776;50.798;6.430;2024-01-25T14:15:50;11.50;;;2.40;;
19285;SDS011;9776;50.798;6.430;2024-01-25T14:18:17;14.88;;;3.00;;
19285;SDS011;9776;50.798;6.430;2024-01-25T14:20:43;6.07;;;2.10;;
19285;SDS011;9776;50.798;6.430;2024-01-25T14:23:11;8.70;;;2.10;;
19285;SDS011;9776;50.798;6.430;2024-01-25T14:25:38;8.45;;;2.40;;
19285;SDS011;9776;50.798;6.430;2024-01-25T14:28:04;14.18;;;2.00;;
19285;SDS011;9776;50.798;6.430;2024-01-25T14:30:31;8.23;;;2.25;;
19285;SDS011;9776;50.798;6.430;2024-01-25T14:32:58;9.95;;;1.58;;
19285;SDS011;9776;50.798;6.430;2024-01-25T14:35:25;9.98;;;3.50;;
19285;SDS011;9776;50.798;6.430;2024-01-25T14:37:53;7.97;;;1.83;;
19285;SDS011;9776;50.798;6.430;2024-01-25T14:40:21;6.50;;;1.63;;
19285;SDS011;9776;50.798;6.430;2024-01-25T14:42:48;6.35;;;1.80;;
19285;SDS011;9776;50.798;6.430;2024-01-25T14:45:15;8.43;;;2.15;;
19285;SDS011;9776;50.798;6.430;2024-01-25T14:47:42;9.43;;;1.95;;